Time;durP1;ratioP1;P1;durP2;ratioP2;P2;SDS_P1;SDS_P2;PMS_P1;PMS_P2;Temp;Humidity;BMP_temperature;BMP_pressure;BME280_temperature;BME280_humidity;BME280_pressure;Samples;Min_cycle;Max_cycle;Signal;HPM_P1;HPM_P2
2023/02/28 00:01:08;;;;;;;12.57;7.20;;;-1.20;99.90;;;;;;4711066;30;20214;-77
2023/02/28 00:03:35;;;;;;;13.03;7.20;;;-1.10;99.90;;;;;;4714534;30;20221;-77
2023/02/28 00:06:04;;;;;;;13.90;7.30;;;-1.10;99.90;;;;;;4734152;30;20680;-78
2023/02/28 00:08:31;;;;;;;17.87;8.10;;;-1.10;99.90;;;;;;4718799;30;20220;-72
2023/02/28 00:11:03;;;;;;;15.53;7.70;;;-1.20;99.90;;;;;;4718165;30;20347;-74
2023/02/28 00:13:30;;;;;;;16.07;8.00;;;-1.30;99.90;;;;;;4719366;30;20236;-74
2023/02/28 00:16:06;;;;;;;16.17;8.93;;;-1.30;99.90;;;;;;4718517;30;20218;-76
2023/02/28 00:18:33;;;;;;;18.00;8.30;;;-1.40;99.90;;;;;;4717964;30;20209;-78
2023/02/28 00:21:00;;;;;;;15.93;8.27;;;-1.30;99.90;;;;;;4717870;30;20231;-75
2023/02/28 00:23:29;;;;;;;18.97;8.87;;;-1.30;99.90;;;;;;4717657;30;20205;-78
2023/02/28 00:25:56;;;;;;;15.83;8.40;;;-1.30;99.90;;;;;;4717256;30;20299;-78
2023/02/28 00:28:23;;;;;;;18.93;8.57;;;-1.30;99.90;;;;;;4717692;30;20213;-81
2023/02/28 00:30:50;;;;;;;16.47;8.87;;;-1.40;99.90;;;;;;4718474;30;20228;-79
2023/02/28 00:33:17;;;;;;;21.80;10.17;;;-1.50;99.90;;;;;;4717567;30;20749;-78
2023/02/28 00:35:46;;;;;;;19.90;9.87;;;-1.50;99.90;;;;;;4717491;30;20208;-81
2023/02/28 00:38:14;;;;;;;19.60;9.83;;;-1.60;99.90;;;;;;4717658;30;20216;-80
2023/02/28 00:40:41;;;;;;;22.93;10.70;;;-1.60;99.90;;;;;;4716885;30;20245;-81
2023/02/28 00:43:08;;;;;;;18.30;10.40;;;-1.60;99.90;;;;;;4717487;30;20282;-73
2023/02/28 00:45:34;;;;;;;23.50;10.87;;;-1.50;99.90;;;;;;4719141;30;20212;-82
2023/02/28 00:48:01;;;;;;;23.37;11.43;;;-1.50;99.90;;;;;;4718962;30;20246;-73
2023/02/28 00:50:28;;;;;;;22.33;11.10;;;-1.50;99.90;;;;;;4718073;30;20236;-83
2023/02/28 00:52:55;;;;;;;24.90;11.80;;;-1.40;99.90;;;;;;4716856;30;20235;-80
2023/02/28 00:55:22;;;;;;;23.80;11.83;;;-1.50;99.90;;;;;;4717593;30;20218;-80
2023/02/28 00:57:49;;;;;;;23.77;12.27;;;-1.50;99.90;;;;;;4717577;30;20211;-74
2023/02/28 01:00:16;;;;;;;22.83;12.03;;;-1.50;99.90;;;;;;4718895;30;20291;-78
2023/02/28 01:02:43;;;;;;;26.80;12.27;;;-1.60;99.90;;;;;;4717437;30;20748;-80
2023/02/28 01:05:09;;;;;;;22.17;11.67;;;-1.70;99.90;;;;;;4717294;30;20204;-80
2023/02/28 01:07:36;;;;;;;24.37;12.17;;;-1.70;99.90;;;;;;4717154;30;20214;-81
2023/02/28 01:10:04;;;;;;;25.23;13.00;;;-1.80;99.90;;;;;;4717330;30;20238;-81
2023/02/28 01:12:30;;;;;;;25.77;12.73;;;-1.80;99.90;;;;;;4716963;30;20564;-82
2023/02/28 01:14:57;;;;;;;30.73;13.40;;;-1.80;99.90;;;;;;4717214;30;20215;-82
2023/02/28 01:17:26;;;;;;;29.30;13.97;;;-1.80;99.90;;;;;;4702517;30;20207;-78
2023/02/28 01:19:55;;;;;;;30.40;14.00;;;-1.70;99.90;;;;;;4717038;30;20765;-81
2023/02/28 01:22:22;;;;;;;30.97;15.00;;;-1.60;99.90;;;;;;4717076;30;20198;-80
2023/02/28 01:24:49;;;;;;;26.80;12.97;;;-1.70;99.90;;;;;;4718498;30;20209;-79
2023/02/28 01:27:16;;;;;;;31.90;14.40;;;-1.60;99.90;;;;;;4718250;30;20663;-80
2023/02/28 01:29:43;;;;;;;30.37;13.87;;;-1.60;99.90;;;;;;4717393;30;20276;-79
2023/02/28 01:32:09;;;;;;;28.97;13.93;;;-1.60;99.90;;;;;;4702524;30;20216;-80
2023/02/28 01:34:36;;;;;;;29.87;14.33;;;-1.60;99.90;;;;;;4716792;30;20722;-79
2023/02/28 01:37:04;;;;;;;30.03;14.50;;;-1.60;99.90;;;;;;4718032;30;20214;-80
2023/02/28 01:39:30;;;;;;;30.23;13.73;;;-1.50;99.90;;;;;;4718161;30;20212;-81
2023/02/28 01:41:57;;;;;;;28.80;14.47;;;-1.50;99.90;;;;;;4716845;30;20224;-80
2023/02/28 01:45:02;;;;;;;30.80;13.93;;;-1.60;99.90;;;;;;4717730;30;20211;-81
2023/02/28 01:47:34;;;;;;;34.73;15.27;;;-1.50;99.90;;;;;;4718948;30;20222;-82
2023/02/28 01:50:04;;;;;;;28.87;13.67;;;-1.60;99.90;;;;;;4716690;30;20608;-85
2023/02/28 01:52:32;;;;;;;30.83;14.00;;;-1.60;99.90;;;;;;4716981;30;20224;-82
2023/02/28 01:55:02;;;;;;;31.67;14.67;;;-1.70;99.90;;;;;;4716636;30;20219;-82
2023/02/28 01:57:37;;;;;;;28.23;14.13;;;-1.70;99.90;;;;;;4716521;30;20652;-80
2023/02/28 02:00:09;;;;;;;31.10;14.03;;;-1.70;99.90;;;;;;4702170;30;20706;-80
2023/02/28 02:02:37;;;;;;;29.17;13.60;;;-1.60;99.90;;;;;;4717559;30;20237;-72
2023/02/28 02:05:07;;;;;;;32.53;14.83;;;-1.60;99.90;;;;;;4716437;30;20211;-79
2023/02/28 02:07:41;;;;;;;29.57;14.47;;;-1.60;99.90;;;;;;4716563;30;20221;-77
2023/02/28 02:10:15;;;;;;;29.57;13.73;;;-1.60;99.90;;;;;;4716262;30;20269;-81
2023/02/28 02:13:00;;;;;;;36.70;14.50;;;-1.70;99.90;;;;;;4716354;30;20203;-78
2023/02/28 02:16:06;;;;;;;30.50;14.40;;;-1.70;99.90;;;;;;4716125;30;20231;-76
2023/02/28 02:18:47;;;;;;;27.40;13.37;;;-1.80;99.90;;;;;;4716262;30;20203;-77
2023/02/28 02:21:46;;;;;;;33.07;14.70;;;-1.80;99.90;;;;;;4715946;30;20235;-78
2023/02/28 02:24:37;;;;;;;33.20;14.40;;;-1.70;99.90;;;;;;4680717;30;20327;-79
2023/02/28 02:27:38;;;;;;;32.77;14.27;;;-1.70;99.90;;;;;;4665892;30;20227;-81
2023/02/28 02:30:14;;;;;;;29.40;14.80;;;-1.60;99.90;;;;;;4660835;30;20248;-77
2023/02/28 02:33:04;;;;;;;30.97;14.50;;;-1.70;99.90;;;;;;4688541;30;20679;-78
2023/02/28 02:35:47;;;;;;;30.67;14.80;;;-1.70;99.90;;;;;;4675290;30;20300;-79
2023/02/28 02:38:28;;;;;;;33.67;14.93;;;-1.80;99.90;;;;;;4687531;30;20236;-74
2023/02/28 02:41:14;;;;;;;31.03;14.20;;;-1.80;99.90;;;;;;4678341;30;20308;-79
2023/02/28 02:43:51;;;;;;;33.60;14.50;;;-1.80;99.90;;;;;;4681356;30;20220;-78
2023/02/28 02:46:21;;;;;;;33.77;14.50;;;-1.80;99.90;;;;;;4695087;30;20217;-77
2023/02/28 02:48:50;;;;;;;28.27;13.93;;;-1.80;99.90;;;;;;4690114;30;20249;-79
2023/02/28 02:51:20;;;;;;;30.17;13.83;;;-1.80;99.90;;;;;;4680750;30;20332;-79
2023/02/28 02:54:11;;;;;;;28.23;13.63;;;-1.80;99.90;;;;;;4666102;30;20202;-80
2023/02/28 02:56:41;;;;;;;29.43;13.53;;;-1.80;99.90;;;;;;4666190;30;20236;-80
2023/02/28 02:59:11;;;;;;;25.13;13.20;;;-1.70;99.90;;;;;;4680331;30;20354;-79
2023/02/28 03:01:39;;;;;;;28.83;13.27;;;-1.70;99.90;;;;;;4694199;30;20215;-78
2023/02/28 03:04:16;;;;;;;27.57;13.83;;;-1.60;99.90;;;;;;4715468;30;20216;-80
2023/02/28 03:06:42;;;;;;;27.97;13.57;;;-1.60;99.90;;;;;;4715690;30;20207;-80
2023/02/28 03:09:09;;;;;;;27.20;12.27;;;-1.50;99.90;;;;;;4715422;30;20620;-78
2023/02/28 03:11:41;;;;;;;25.10;12.17;;;-1.60;99.90;;;;;;4716613;30;20599;-81
2023/02/28 03:14:30;;;;;;;26.93;12.07;;;-1.50;99.90;;;;;;4715844;30;20215;-80
2023/02/28 03:17:29;;;;;;;26.67;11.87;;;-1.40;99.90;;;;;;4715555;30;20204;-80
2023/02/28 03:20:30;;;;;;;26.07;12.57;;;-1.50;99.90;;;;;;4716698;30;20722;-80
2023/02/28 03:23:10;;;;;;;24.63;12.47;;;-1.60;99.90;;;;;;4715243;30;20550;-73
2023/02/28 03:25:46;;;;;;;21.40;11.10;;;-1.60;99.90;;;;;;4716644;30;20314;-73
2023/02/28 03:28:45;;;;;;;24.17;10.90;;;-1.70;99.90;;;;;;4716413;30;20221;-75
2023/02/28 03:31:26;;;;;;;21.93;11.40;;;-1.80;99.90;;;;;;4716408;30;20245;-75
2023/02/28 03:34:12;;;;;;;19.33;10.90;;;-1.70;99.90;;;;;;4715075;30;20333;-75
2023/02/28 03:36:44;;;;;;;20.30;10.07;;;-1.50;99.90;;;;;;4715178;30;20216;-81
2023/02/28 03:39:32;;;;;;;20.43;10.63;;;-1.50;99.90;;;;;;4717216;30;20297;-79
2023/02/28 03:42:04;;;;;;;23.10;10.80;;;-1.50;99.90;;;;;;4720143;30;20619;-80
2023/02/28 03:44:37;;;;;;;20.00;10.30;;;-1.50;99.90;;;;;;4720064;30;20689;-83
2023/02/28 03:47:15;;;;;;;19.13;10.03;;;-1.50;99.90;;;;;;4718735;30;20203;-79
2023/02/28 03:49:48;;;;;;;22.43;10.63;;;-1.60;99.90;;;;;;4718813;30;20210;-79
2023/02/28 03:52:18;;;;;;;18.50;10.20;;;-1.60;99.90;;;;;;4720025;30;20229;-80
2023/02/28 03:54:53;;;;;;;23.53;10.70;;;-1.60;99.90;;;;;;4718585;30;20204;-80
2023/02/28 03:57:31;;;;;;;19.27;10.07;;;-1.60;99.90;;;;;;4718583;30;20217;-75
2023/02/28 04:00:10;;;;;;;20.60;10.73;;;-1.80;99.90;;;;;;4718368;30;20985;-80
2023/02/28 04:02:37;;;;;;;19.97;10.43;;;-1.80;99.90;;;;;;4718824;30;20241;-80
2023/02/28 04:05:04;;;;;;;21.63;10.20;;;-1.80;99.90;;;;;;4718748;30;20219;-80
2023/02/28 04:07:31;;;;;;;23.77;11.43;;;-1.90;99.90;;;;;;4719781;30;20216;-80
2023/02/28 04:09:58;;;;;;;19.13;9.93;;;-1.90;99.90;;;;;;4718672;30;20207;-78
2023/02/28 04:12:25;;;;;;;19.40;9.77;;;-2.00;99.90;;;;;;4719343;30;20255;-79
2023/02/28 04:14:52;;;;;;;20.87;10.17;;;-2.00;99.90;;;;;;4718250;30;20203;-79
2023/02/28 04:17:19;;;;;;;22.93;10.80;;;-2.00;99.90;;;;;;4719385;30;20206;-79
2023/02/28 04:19:46;;;;;;;21.47;10.33;;;-1.90;99.90;;;;;;4719093;30;20184;-81
2023/02/28 04:22:13;;;;;;;18.60;9.93;;;-1.90;99.90;;;;;;4718142;30;20211;-77
2023/02/28 04:24:41;;;;;;;20.10;10.23;;;-1.90;99.90;;;;;;4719592;30;20203;-79
2023/02/28 04:27:09;;;;;;;17.93;9.80;;;-2.00;99.90;;;;;;4703305;30;20220;-80
2023/02/28 04:29:36;;;;;;;19.20;10.63;;;-2.00;99.90;;;;;;4719143;30;20204;-79
2023/02/28 04:32:05;;;;;;;21.57;10.73;;;-2.00;99.90;;;;;;4718874;30;20643;-80
2023/02/28 04:34:36;;;;;;;24.43;11.30;;;-2.00;99.90;;;;;;4717799;30;20782;-76
2023/02/28 04:37:03;;;;;;;19.50;10.23;;;-2.00;99.90;;;;;;4719177;30;20208;-79
2023/02/28 04:39:41;;;;;;;23.33;10.33;;;-2.10;99.90;;;;;;4719284;30;20674;-79
2023/02/28 04:42:09;;;;;;;17.30;9.60;;;-2.10;99.90;;;;;;4717951;30;20214;-83
2023/02/28 04:44:35;;;;;;;21.47;10.53;;;-2.10;99.90;;;;;;4719213;30;21004;-82
2023/02/28 04:47:02;;;;;;;22.57;11.03;;;-2.00;99.90;;;;;;4719480;30;20257;-81
2023/02/28 04:49:29;;;;;;;24.33;10.73;;;-1.90;99.90;;;;;;4718252;30;20219;-80
2023/02/28 04:51:56;;;;;;;23.27;10.83;;;-2.00;99.90;;;;;;4718998;30;20229;-82
2023/02/28 04:54:24;;;;;;;21.70;10.30;;;-2.00;99.90;;;;;;4710737;30;20609;-80
2023/02/28 04:56:51;;;;;;;22.27;10.73;;;-2.00;99.90;;;;;;4716688;30;20678;-75
2023/02/28 04:59:18;;;;;;;19.60;10.60;;;-2.00;99.90;;;;;;4718164;30;20222;-75
2023/02/28 05:01:47;;;;;;;21.17;10.33;;;-2.00;99.90;;;;;;4715947;30;20215;-74
2023/02/28 05:04:14;;;;;;;19.30;10.13;;;-2.10;99.90;;;;;;4715043;30;20215;-84
2023/02/28 05:06:42;;;;;;;21.27;10.30;;;-2.10;99.90;;;;;;4715751;30;20681;-79
2023/02/28 05:09:11;;;;;;;17.90;9.67;;;-2.10;99.90;;;;;;4713600;30;20226;-79
2023/02/28 05:11:39;;;;;;;21.57;10.40;;;-2.20;99.90;;;;;;4708843;30;20238;-72
2023/02/28 05:14:11;;;;;;;21.00;10.43;;;-2.20;99.90;;;;;;4715329;30;20195;-81
2023/02/28 05:16:39;;;;;;;20.23;9.77;;;-2.30;99.90;;;;;;4731107;30;20195;-74
2023/02/28 05:19:06;;;;;;;20.43;10.53;;;-2.30;99.90;;;;;;4710847;30;20300;-81
2023/02/28 05:21:36;;;;;;;20.53;10.27;;;-2.30;99.90;;;;;;4715033;30;20266;-82
2023/02/28 05:24:07;;;;;;;20.67;10.97;;;-2.30;99.90;;;;;;4709013;30;20208;-81
2023/02/28 05:26:37;;;;;;;20.17;10.07;;;-2.40;99.90;;;;;;4723356;30;20294;-73
2023/02/28 05:29:04;;;;;;;21.57;9.90;;;-2.40;99.90;;;;;;4715140;30;20646;-82
2023/02/28 05:31:32;;;;;;;19.50;10.43;;;-2.40;99.90;;;;;;4711208;30;20237;-80
2023/02/28 05:33:59;;;;;;;20.90;9.70;;;-2.40;99.90;;;;;;4725717;30;20643;-77
2023/02/28 05:36:27;;;;;;;20.77;10.27;;;-2.30;99.90;;;;;;4726868;30;20277;-81
2023/02/28 05:38:54;;;;;;;22.67;10.77;;;-2.30;99.90;;;;;;4706340;30;20195;-76
2023/02/28 05:41:21;;;;;;;26.07;11.03;;;-2.30;99.90;;;;;;4734545;30;20213;-83
2023/02/28 05:43:48;;;;;;;23.97;11.10;;;-2.30;99.90;;;;;;4720180;30;20207;-81
2023/02/28 05:46:17;;;;;;;25.03;11.40;;;-2.30;99.90;;;;;;4735453;30;20281;-73
2023/02/28 05:48:46;;;;;;;24.70;11.83;;;-2.30;99.90;;;;;;4719670;30;20206;-71
2023/02/28 05:51:13;;;;;;;27.20;11.50;;;-2.40;99.90;;;;;;4734711;30;20288;-71
2023/02/28 05:53:40;;;;;;;23.00;10.63;;;-2.40;99.90;;;;;;4727812;30;20237;-71
2023/02/28 05:56:07;;;;;;;25.00;11.33;;;-2.20;99.90;;;;;;4735203;30;20670;-73
2023/02/28 05:58:34;;;;;;;25.47;11.30;;;-2.30;99.90;;;;;;4719367;30;20230;-72
2023/02/28 06:01:22;;;;;;;27.47;11.67;;;-2.30;99.90;;;;;;4706915;30;20218;-71
2023/02/28 06:03:50;;;;;;;23.03;11.13;;;-2.20;99.90;;;;;;4717313;30;20667;-77
2023/02/28 06:06:17;;;;;;;25.57;11.57;;;-2.20;99.90;;;;;;4718578;30;20263;-80
2023/02/28 06:08:44;;;;;;;24.67;11.57;;;-2.10;99.90;;;;;;4702597;30;20665;-76
2023/02/28 06:11:11;;;;;;;26.80;12.27;;;-2.00;99.90;;;;;;4702166;30;20589;-83
2023/02/28 06:13:38;;;;;;;23.87;11.97;;;-1.90;99.90;;;;;;4702213;30;20210;-81
2023/02/28 06:16:06;;;;;;;25.10;11.70;;;-1.80;99.90;;;;;;4718140;30;20208;-81
2023/02/28 06:18:33;;;;;;;24.33;11.60;;;-1.70;99.90;;;;;;4717863;30;20549;-79
2023/02/28 06:21:00;;;;;;;22.80;11.40;;;-1.70;99.90;;;;;;4702087;30;20698;-79
2023/02/28 06:23:27;;;;;;;23.93;11.47;;;-1.80;99.90;;;;;;4717727;30;20700;-74
2023/02/28 06:25:57;;;;;;;25.73;11.77;;;-1.70;99.90;;;;;;4702191;30;20214;-83
2023/02/28 06:28:25;;;;;;;22.73;11.77;;;-1.60;99.90;;;;;;4701777;30;20660;-72
2023/02/28 06:30:52;;;;;;;24.17;12.63;;;-1.50;99.90;;;;;;4702399;30;20211;-84
2023/02/28 06:33:19;;;;;;;27.57;12.93;;;-1.50;99.90;;;;;;4703589;30;20244;-85
2023/02/28 06:35:47;;;;;;;33.87;13.00;;;-1.40;99.90;;;;;;4700717;30;20203;-88
2023/02/28 06:38:14;;;;;;;25.00;11.90;;;-1.40;99.90;;;;;;4714029;30;20634;-84
2023/02/28 06:40:41;;;;;;;30.27;13.27;;;-1.30;99.90;;;;;;4714627;30;20205;-80
2023/02/28 06:43:08;;;;;;;29.35;15.57;;;-1.30;99.90;;;;;;4712944;30;20959;-82
2023/02/28 06:45:35;;;;;;;25.70;12.40;;;-1.30;99.90;;;;;;4701080;30;20216;-80
2023/02/28 06:48:02;;;;;;;25.50;12.37;;;-1.20;99.90;;;;;;4714463;30;20218;-83
2023/02/28 06:50:30;;;;;;;23.17;11.43;;;-1.30;99.90;;;;;;4713787;30;20232;-78
2023/02/28 06:52:57;;;;;;;25.23;11.67;;;-1.30;99.90;;;;;;4700909;30;20237;-86
2023/02/28 06:55:24;;;;;;;22.57;10.90;;;-1.20;99.90;;;;;;4700530;30;20198;-80
2023/02/28 06:57:51;;;;;;;22.83;10.93;;;-1.10;99.90;;;;;;4712927;30;20215;-77
2023/02/28 07:00:18;;;;;;;21.07;11.20;;;-1.10;99.90;;;;;;4725256;30;20203;-81
2023/02/28 07:02:45;;;;;;;21.53;10.83;;;-1.00;99.90;;;;;;4713848;30;20211;-80
2023/02/28 07:05:12;;;;;;;22.00;10.97;;;-1.00;99.90;;;;;;4713574;30;20211;-74
2023/02/28 07:07:43;;;;;;;22.53;10.73;;;-0.90;99.90;;;;;;4717046;30;20208;-73
2023/02/28 07:10:11;;;;;;;24.30;11.37;;;-0.80;99.90;;;;;;4715934;30;20200;-76
2023/02/28 07:12:38;;;;;;;23.83;12.00;;;-0.70;99.90;;;;;;4715775;30;20243;-70
2023/02/28 07:15:05;;;;;;;22.60;11.47;;;-0.60;99.90;;;;;;4714512;30;20218;-74
2023/02/28 07:17:32;;;;;;;26.42;12.38;;;-0.50;99.90;;;;;;4713363;30;20450;-80
2023/02/28 07:19:59;;;;;;;29.20;11.60;;;-0.40;99.90;;;;;;4713954;30;20228;-79
2023/02/28 07:22:28;;;;;;;19.13;9.80;;;-0.40;99.90;;;;;;4716494;30;20670;-79
2023/02/28 07:24:55;;;;;;;17.30;8.40;;;-0.30;99.90;;;;;;4717393;30;20238;-88
2023/02/28 07:27:25;;;;;;;20.23;9.03;;;-0.20;99.90;;;;;;4731650;30;20223;-80
2023/02/28 07:29:55;;;;;;;20.57;9.33;;;-0.30;99.90;;;;;;4728944;30;20261;-76
2023/02/28 07:32:23;;;;;;;21.80;8.40;;;-0.30;99.90;;;;;;4696817;30;20245;-73
2023/02/28 07:34:50;;;;;;;22.00;8.67;;;-0.20;99.90;;;;;;4715524;30;20359;-74
2023/02/28 07:37:16;;;;;;;18.53;8.60;;;-0.20;99.90;;;;;;4716967;30;20214;-74
2023/02/28 07:39:43;;;;;;;14.53;7.50;;;-0.10;99.90;;;;;;4715383;30;20669;-74
2023/02/28 07:42:11;;;;;;;14.43;8.40;;;0.00;99.90;;;;;;4715351;30;20207;-73
2023/02/28 07:44:40;;;;;;;14.70;7.70;;;0.00;99.90;;;;;;4714851;30;20219;-72
2023/02/28 07:47:09;;;;;;;16.23;7.13;;;0.10;99.90;;;;;;4715145;30;20214;-73
2023/02/28 07:49:36;;;;;;;17.57;7.87;;;0.20;99.90;;;;;;4716653;30;20623;-73
2023/02/28 07:52:05;;;;;;;13.53;7.33;;;0.20;99.90;;;;;;4716480;30;20240;-72
2023/02/28 07:54:32;;;;;;;17.70;7.87;;;0.00;99.90;;;;;;4728623;30;20224;-70
2023/02/28 07:56:59;;;;;;;14.73;7.30;;;0.00;99.90;;;;;;4729416;30;20207;-72
2023/02/28 07:59:26;;;;;;;12.20;6.63;;;0.10;99.90;;;;;;4700503;30;20213;-72
2023/02/28 08:01:53;;;;;;;12.00;6.80;;;0.20;99.90;;;;;;4715175;30;20565;-71
2023/02/28 08:04:20;;;;;;;12.60;6.97;;;0.40;99.90;;;;;;4714972;30;20302;-73
2023/02/28 08:06:47;;;;;;;13.70;6.50;;;0.40;99.90;;;;;;4715170;30;20627;-71
2023/02/28 08:09:14;;;;;;;11.73;6.10;;;0.50;99.90;;;;;;4715117;30;20697;-71
2023/02/28 08:11:41;;;;;;;10.27;6.00;;;0.50;99.90;;;;;;4715476;30;20245;-73
2023/02/28 08:14:20;;;;;;;10.80;6.47;;;0.50;99.90;;;;;;4714837;30;20571;-73
2023/02/28 08:16:47;;;;;;;11.13;6.13;;;0.60;99.90;;;;;;4716052;30;20655;-72
2023/02/28 08:19:14;;;;;;;9.07;5.73;;;1.20;99.90;;;;;;4716472;30;20223;-73
2023/02/28 08:21:40;;;;;;;9.07;5.63;;;2.00;99.90;;;;;;4714959;30;20234;-73
2023/02/28 08:24:07;;;;;;;10.63;5.17;;;2.90;99.90;;;;;;4714970;30;20213;-73
2023/02/28 08:26:34;;;;;;;10.30;5.47;;;3.60;99.90;;;;;;4716842;30;20208;-74
2023/02/28 08:29:01;;;;;;;10.70;6.03;;;3.90;99.90;;;;;;4719429;30;20200;-73
2023/02/28 08:31:28;;;;;;;11.90;6.30;;;4.20;99.90;;;;;;4717815;30;20224;-74
2023/02/28 08:33:58;;;;;;;11.47;6.37;;;4.30;99.90;;;;;;4728432;30;20250;-72
2023/02/28 08:36:28;;;;;;;12.73;6.57;;;4.10;99.90;;;;;;4720719;30;20216;-72
2023/02/28 08:38:56;;;;;;;12.47;6.90;;;4.50;99.90;;;;;;4720874;30;20618;-74
2023/02/28 08:41:23;;;;;;;12.00;6.50;;;4.40;99.90;;;;;;4720733;30;20203;-74
2023/02/28 08:43:49;;;;;;;13.33;6.77;;;4.30;99.90;;;;;;4735220;30;20306;-73
2023/02/28 08:46:16;;;;;;;12.53;6.70;;;4.70;99.90;;;;;;4736218;30;20213;-73
2023/02/28 08:48:44;;;;;;;11.90;6.50;;;5.00;99.90;;;;;;4720690;30;20266;-73
2023/02/28 08:51:18;;;;;;;11.33;6.20;;;5.20;99.90;;;;;;4735309;30;20209;-71
2023/02/28 08:53:45;;;;;;;11.40;6.57;;;5.10;99.90;;;;;;4720604;30;20621;-71
2023/02/28 08:56:14;;;;;;;9.93;6.00;;;5.20;99.90;;;;;;4720220;30;20205;-72
2023/02/28 08:58:41;;;;;;;10.10;6.33;;;5.30;99.90;;;;;;4720766;30;20224;-72
2023/02/28 09:01:10;;;;;;;10.30;5.90;;;5.30;99.90;;;;;;4734690;30;20664;-72
2023/02/28 09:03:38;;;;;;;9.97;6.17;;;5.10;99.30;;;;;;4736029;30;20220;-72
2023/02/28 09:06:05;;;;;;;10.40;6.00;;;5.00;99.30;;;;;;4735958;30;20209;-72
2023/02/28 09:08:33;;;;;;;9.43;6.10;;;5.20;98.80;;;;;;4735090;30;20220;-72
2023/02/28 09:10:59;;;;;;;8.57;5.80;;;5.30;98.30;;;;;;4734733;30;20206;-71
2023/02/28 09:13:29;;;;;;;10.53;6.10;;;5.50;97.60;;;;;;4734819;30;20321;-72
2023/02/28 09:16:01;;;;;;;10.30;6.50;;;5.80;96.10;;;;;;4735815;30;20202;-71
2023/02/28 09:18:28;;;;;;;11.43;6.13;;;5.50;95.10;;;;;;4735002;30;20718;-75
2023/02/28 09:20:57;;;;;;;12.33;5.97;;;5.60;95.70;;;;;;4735691;30;20717;-73
2023/02/28 09:23:24;;;;;;;9.63;6.57;;;5.90;95.40;;;;;;4719789;30;20219;-74
2023/02/28 09:25:53;;;;;;;9.80;5.77;;;6.50;94.40;;;;;;4734494;30;20210;-73
2023/02/28 09:28:21;;;;;;;10.60;6.20;;;6.80;93.00;;;;;;4705579;30;20810;-71
2023/02/28 09:30:50;;;;;;;11.10;6.53;;;7.00;91.70;;;;;;4719828;30;20301;-73
2023/02/28 09:33:20;;;;;;;10.00;6.50;;;7.10;90.10;;;;;;4731412;30;20242;-72
2023/02/28 09:35:58;;;;;;;10.93;6.13;;;6.90;89.20;;;;;;4717465;30;20301;-75
2023/02/28 09:38:25;;;;;;;9.93;6.00;;;6.80;90.00;;;;;;4718826;30;20187;-70
2023/02/28 09:40:58;;;;;;;9.93;6.10;;;6.60;88.90;;;;;;4718136;30;20198;-71
2023/02/28 09:43:34;;;;;;;11.73;6.23;;;6.80;90.40;;;;;;4717086;30;20222;-72
2023/02/28 09:46:06;;;;;;;12.80;6.53;;;6.80;90.60;;;;;;4716599;30;20252;-73
2023/02/28 09:48:42;;;;;;;10.47;6.50;;;7.60;91.10;;;;;;4716884;30;20276;-76
2023/02/28 09:51:34;;;;;;;9.23;6.00;;;8.00;87.70;;;;;;4717159;30;20565;-77
2023/02/28 09:54:02;;;;;;;11.00;6.57;;;8.40;85.90;;;;;;4717031;30;20545;-82
2023/02/28 09:56:41;;;;;;;10.07;6.40;;;8.60;84.20;;;;;;4718601;30;20581;-78
2023/02/28 09:59:29;;;;;;;11.33;6.10;;;9.00;90.60;;;;;;4717632;30;20203;-76
2023/02/28 10:02:21;;;;;;;9.67;6.27;;;8.70;89.50;;;;;;4717984;30;20571;-77
2023/02/28 10:04:57;;;;;;;11.47;6.10;;;8.50;90.50;;;;;;4717588;30;20202;-76
2023/02/28 10:07:37;;;;;;;11.37;6.37;;;8.00;93.90;;;;;;4701983;30;20275;-77
2023/02/28 10:10:18;;;;;;;8.97;6.00;;;8.20;91.50;;;;;;4717779;30;20211;-77
2023/02/28 10:12:47;;;;;;;12.93;6.90;;;8.40;90.40;;;;;;4717526;30;20620;-76
2023/02/28 10:15:16;;;;;;;12.57;6.57;;;8.30;91.90;;;;;;4716146;30;20222;-75
2023/02/28 10:17:48;;;;;;;11.70;5.97;;;8.70;91.60;;;;;;4716393;30;20219;-79
2023/02/28 10:20:38;;;;;;;12.70;6.70;;;8.90;86.90;;;;;;4718543;30;20219;-74
2023/02/28 10:23:34;;;;;;;8.23;5.97;;;9.10;89.30;;;;;;4717542;30;20218;-76
2023/02/28 10:26:11;;;;;;;12.00;6.57;;;8.90;78.40;;;;;;4683003;30;20207;-76
2023/02/28 10:28:39;;;;;;;10.03;6.20;;;8.70;79.80;;;;;;4683087;30;20211;-75
2023/02/28 10:31:14;;;;;;;11.73;6.80;;;8.80;86.60;;;;;;4697484;30;20218;-76
2023/02/28 10:33:41;;;;;;;9.73;6.10;;;9.30;91.30;;;;;;4682730;30;20338;-75
2023/02/28 10:36:13;;;;;;;11.13;6.67;;;9.60;77.70;;;;;;4697497;30;20215;-76
2023/02/28 10:38:47;;;;;;;12.57;6.77;;;9.10;80.10;;;;;;4683309;30;20212;-76
2023/02/28 10:41:41;;;;;;;12.23;6.77;;;9.00;79.10;;;;;;4697368;30;20674;-75
2023/02/28 10:44:20;;;;;;;12.33;6.93;;;8.40;76.40;;;;;;4683028;30;20215;-76
2023/02/28 10:46:48;;;;;;;12.37;6.83;;;8.60;82.20;;;;;;4683189;30;20218;-76
2023/02/28 10:49:27;;;;;;;11.30;7.17;;;8.50;79.40;;;;;;4696982;30;20246;-75
2023/02/28 10:51:59;;;;;;;12.93;6.70;;;8.40;81.00;;;;;;4682604;30;20220;-78
2023/02/28 10:54:30;;;;;;;11.17;6.70;;;8.60;81.50;;;;;;4697440;30;20234;-74
2023/02/28 10:57:15;;;;;;;11.43;7.32;;;8.90;80.90;;;;;;4682468;30;20961;-74
2023/02/28 10:59:42;;;;;;;13.97;7.33;;;9.10;79.70;;;;;;4697219;30;20208;-76
2023/02/28 11:02:42;;;;;;;13.80;7.87;;;9.20;78.10;;;;;;4707739;30;20210;-79
2023/02/28 11:05:30;;;;;;;11.97;7.47;;;9.20;78.70;;;;;;4682507;30;20686;-77
2023/02/28 11:08:18;;;;;;;10.30;7.40;;;10.20;83.90;;;;;;4702290;30;20634;-76
2023/02/28 11:10:47;;;;;;;10.37;6.80;;;10.70;80.40;;;;;;4697268;30;20261;-75
2023/02/28 11:13:20;;;;;;;11.53;7.77;;;11.30;77.70;;;;;;4682727;30;20333;-75
2023/02/28 11:15:56;;;;;;;13.40;7.67;;;11.00;70.90;;;;;;4696917;30;20628;-76
2023/02/28 11:18:43;;;;;;;11.60;7.30;;;11.10;71.70;;;;;;4682574;30;20203;-78
2023/02/28 11:21:18;;;;;;;13.53;8.00;;;11.40;76.00;;;;;;4682479;30;20671;-74
2023/02/28 11:23:45;;;;;;;14.50;7.80;;;11.90;74.10;;;;;;4697155;30;20572;-75
2023/02/28 11:26:40;;;;;;;12.23;7.33;;;12.20;68.30;;;;;;4682602;30;20222;-77
2023/02/28 11:29:23;;;;;;;12.77;7.90;;;12.20;64.10;;;;;;4696711;30;20219;-74
2023/02/28 11:32:13;;;;;;;14.27;7.70;;;11.40;65.00;;;;;;4682394;30;20214;-76
2023/02/28 11:34:41;;;;;;;13.63;8.00;;;11.20;66.40;;;;;;4696724;30;20326;-78
2023/02/28 11:37:15;;;;;;;15.60;8.20;;;11.30;66.30;;;;;;4682560;30;20208;-75
2023/02/28 11:39:43;;;;;;;12.17;8.10;;;11.40;65.60;;;;;;4696950;30;20304;-77
2023/02/28 11:42:36;;;;;;;13.97;8.13;;;10.90;67.10;;;;;;4701199;30;20230;-74
2023/02/28 11:45:17;;;;;;;12.77;8.10;;;10.90;67.50;;;;;;4682255;30;21105;-76
2023/02/28 11:47:50;;;;;;;13.93;8.37;;;11.60;66.60;;;;;;4697341;30;20226;-80
2023/02/28 11:50:29;;;;;;;12.67;8.23;;;12.40;65.40;;;;;;4697120;30;20310;-76
2023/02/28 11:53:01;;;;;;;13.57;8.50;;;13.00;63.40;;;;;;4682705;30;20254;-75
2023/02/28 11:55:44;;;;;;;15.93;8.93;;;12.90;59.40;;;;;;4696781;30;20222;-77
2023/02/28 11:58:25;;;;;;;14.87;8.80;;;13.20;62.90;;;;;;4696960;30;20302;-76
2023/02/28 12:01:13;;;;;;;12.63;8.23;;;13.60;58.80;;;;;;4683183;30;20750;-74
2023/02/28 12:04:07;;;;;;;13.67;8.70;;;13.80;58.30;;;;;;4685349;30;20303;-76
2023/02/28 12:07:04;;;;;;;13.20;8.93;;;13.50;57.60;;;;;;4685504;30;20211;-76
2023/02/28 12:09:57;;;;;;;14.90;8.50;;;14.40;57.50;;;;;;4699904;30;20324;-79
2023/02/28 12:12:31;;;;;;;12.63;8.77;;;14.60;57.10;;;;;;4701250;30;20645;-81
2023/02/28 12:15:21;;;;;;;13.57;8.80;;;15.20;55.10;;;;;;4700557;30;20211;-76
2023/02/28 12:18:06;;;;;;;14.57;8.87;;;15.00;55.30;;;;;;4686498;30;20219;-81
2023/02/28 12:20:54;;;;;;;13.13;9.23;;;14.60;54.80;;;;;;4912752;24;20245;-80
2023/02/28 12:23:55;;;;;;;13.63;8.57;;;15.40;54.50;;;;;;4754137;30;20753;-83
2023/02/28 12:26:40;;;;;;;12.40;8.17;;;15.00;53.80;;;;;;4754084;30;20198;-84
2023/02/28 12:29:30;;;;;;;16.13;9.10;;;15.00;54.50;;;;;;4739568;30;20209;-82
2023/02/28 12:32:15;;;;;;;15.43;9.73;;;15.10;53.30;;;;;;4754359;30;20308;-78
2023/02/28 12:34:49;;;;;;;14.97;9.60;;;15.50;52.60;;;;;;4754846;30;20216;-85
2023/02/28 12:37:38;;;;;;;16.23;9.30;;;15.70;53.30;;;;;;4755387;30;20754;-83
2023/02/28 12:40:12;;;;;;;18.07;9.70;;;15.20;52.50;;;;;;4754622;30;20205;-78
2023/02/28 12:42:43;;;;;;;15.20;9.10;;;14.60;51.90;;;;;;4755041;30;20214;-77
2023/02/28 12:45:15;;;;;;;15.20;8.97;;;14.90;53.30;;;;;;4752899;30;20206;-76
2023/02/28 12:47:50;;;;;;;12.67;8.57;;;15.50;52.70;;;;;;4753912;30;20202;-82
2023/02/28 12:50:17;;;;;;;14.87;9.20;;;15.10;52.20;;;;;;4738445;30;20205;-78
2023/02/28 12:53:06;;;;;;;15.33;9.30;;;15.00;52.90;;;;;;4755388;30;20224;-84
2023/02/28 12:56:16;;;;;;;15.93;9.60;;;13.80;53.50;;;;;;4739673;30;20224;-81
2023/02/28 12:58:45;;;;;;;15.40;9.37;;;13.80;54.60;;;;;;4704446;30;20219;-82
2023/02/28 13:01:37;;;;;;;13.07;9.20;;;14.40;54.40;;;;;;4704720;30;20211;-84
2023/02/28 13:04:37;;;;;;;17.70;9.77;;;15.20;53.10;;;;;;4719383;30;20225;-84